Time;durP1;ratioP1;P1;durP2;ratioP2;P2;SDS_P1;SDS_P2;PMS_P1;PMS_P2;Temp;Humidity;BMP_temperature;BMP_pressure;BME280_temperature;BME280_humidity;BME280_pressure;Samples;Min_cycle;Max_cycle;Signal;HPM_P1;HPM_P2
2021/07/11 00:00:14;;;;;;;38.15;23.38;;;;;;;;;;4344092;33;20155;-81
2021/07/11 00:02:42;;;;;;;31.08;21.40;;;;;;;;;;4343691;33;20163;-80
2021/07/11 00:05:09;;;;;;;36.97;23.20;;;;;;;;;;4344798;33;20203;-82
2021/07/11 00:07:52;;;;;;;36.10;22.75;;;;;;;;;;4343148;33;20164;-81
2021/07/11 00:10:23;;;;;;;40.47;27.10;;;;;;;;;;4343507;33;20194;-82
2021/07/11 00:12:52;;;;;;;61.83;44.85;;;;;;;;;;4343008;33;20655;-81
2021/07/11 00:15:23;;;;;;;52.38;37.20;;;;;;;;;;4343645;33;20220;-81
2021/07/11 00:17:52;;;;;;;53.25;35.22;;;;;;;;;;4343767;33;20203;-81
2021/07/11 00:20:18;;;;;;;41.90;28.02;;;;;;;;;;4343000;33;20197;-81
2021/07/11 00:22:47;;;;;;;42.08;27.52;;;;;;;;;;4343496;33;20167;-81
2021/07/11 00:25:16;;;;;;;33.85;23.02;;;;;;;;;;4343009;33;20534;-81
2021/07/11 00:27:56;;;;;;;36.28;23.10;;;;;;;;;;4344960;33;20184;-81
2021/07/11 00:30:22;;;;;;;36.20;22.58;;;;;;;;;;4342871;33;20163;-81
2021/07/11 00:32:47;;;;;;;31.37;22.52;;;;;;;;;;4342974;33;20593;-81
2021/07/11 00:35:13;;;;;;;34.53;20.75;;;;;;;;;;4342981;33;20280;-81
2021/07/11 00:38:04;;;;;;;36.15;23.00;;;;;;;;;;4343329;33;20190;-81
2021/07/11 00:40:31;;;;;;;37.42;23.10;;;;;;;;;;4341978;33;20163;-80
2021/07/11 00:42:59;;;;;;;35.75;21.55;;;;;;;;;;4341797;33;20190;-81
2021/07/11 00:45:25;;;;;;;33.92;21.85;;;;;;;;;;4342848;33;20164;-81
2021/07/11 00:47:59;;;;;;;36.03;23.02;;;;;;;;;;4342678;33;20198;-81
2021/07/11 00:50:24;;;;;;;32.85;20.77;;;;;;;;;;4342822;33;20703;-80
2021/07/11 00:53:21;;;;;;;36.30;21.92;;;;;;;;;;4342924;33;20278;-81
2021/07/11 00:59:21;;;;;;;33.40;21.92;;;;;;;;;;4333564;33;20510;-81
2021/07/11 01:01:55;;;;;;;35.40;21.73;;;;;;;;;;4344260;33;20166;-81
2021/07/11 01:04:47;;;;;;;32.20;20.95;;;;;;;;;;4342927;33;20990;-80
2021/07/11 01:07:12;;;;;;;32.00;21.15;;;;;;;;;;4343465;33;20190;-81
2021/07/11 01:09:46;;;;;;;30.85;20.88;;;;;;;;;;4341720;33;20155;-81
2021/07/11 01:12:41;;;;;;;35.10;20.90;;;;;;;;;;4342994;33;20170;-81
2021/07/11 01:15:12;;;;;;;33.75;21.77;;;;;;;;;;4342431;33;20182;-81
2021/07/11 01:17:38;;;;;;;35.22;21.98;;;;;;;;;;4342608;33;20159;-81
2021/07/11 01:20:29;;;;;;;35.80;23.60;;;;;;;;;;4342822;33;20152;-81
2021/07/11 01:23:08;;;;;;;32.15;20.55;;;;;;;;;;4342309;33;20194;-81
2021/07/11 01:28:53;;;;;;;34.60;21.92;;;;;;;;;;4358547;32;20155;-81
2021/07/11 01:32:09;;;;;;;;;;;;;;;;;;;;;
2021/07/11 01:34:42;;;;;;;41.47;26.37;;;;;;;;;;4328142;33;20221;-80
2021/07/11 01:37:08;;;;;;;39.83;25.15;;;;;;;;;;4316623;33;20171;-81
2021/07/11 01:39:34;;;;;;;40.05;26.12;;;;;;;;;;4338144;32;20236;-80
2021/07/11 01:42:08;;;;;;;41.37;26.50;;;;;;;;;;4340884;33;20190;-80
2021/07/11 01:44:34;;;;;;;41.22;26.20;;;;;;;;;;4343097;33;20143;-80
2021/07/11 01:49:55;;;;;;;35.75;23.23;;;;;;;;;;4321297;33;20164;-81
2021/07/11 01:52:22;;;;;;;41.97;25.02;;;;;;;;;;4339778;32;20634;-81
2021/07/11 01:58:08;;;;;;;45.38;27.67;;;;;;;;;;4388444;32;20196;-81
2021/07/11 02:10:14;;;;;;;49.10;28.40;;;;;;;;;;4340259;33;20209;-80
2021/07/11 02:12:47;;;;;;;49.90;30.15;;;;;;;;;;4331663;33;20303;-81
2021/07/11 02:15:19;;;;;;;44.95;27.87;;;;;;;;;;4350095;32;20696;-81
2021/07/11 02:17:46;;;;;;;46.03;27.73;;;;;;;;;;4327371;32;20163;-81
2021/07/11 02:20:12;;;;;;;45.08;27.73;;;;;;;;;;4333330;32;20189;-81
2021/07/11 02:22:46;;;;;;;43.30;26.80;;;;;;;;;;4344568;33;20159;-82
2021/07/11 02:25:17;;;;;;;40.58;26.25;;;;;;;;;;4344897;33;20201;-82
2021/07/11 02:27:44;;;;;;;40.83;25.85;;;;;;;;;;4343962;33;20163;-81
2021/07/11 02:33:13;;;;;;;41.88;25.40;;;;;;;;;;4328611;33;20194;-79
2021/07/11 02:35:47;;;;;;;43.75;27.15;;;;;;;;;;4329989;33;20174;-80
2021/07/11 02:38:17;;;;;;;43.70;27.70;;;;;;;;;;4341002;33;20207;-81
2021/07/11 02:40:54;;;;;;;44.78;27.05;;;;;;;;;;4332087;32;20208;-81
2021/07/11 02:43:20;;;;;;;46.60;30.12;;;;;;;;;;4344670;33;20614;-80
2021/07/11 02:45:54;;;;;;;43.83;26.92;;;;;;;;;;4342347;32;20215;-80
2021/07/11 02:48:23;;;;;;;49.45;29.33;;;;;;;;;;4335163;32;20208;-80
2021/07/11 02:50:49;;;;;;;44.53;26.45;;;;;;;;;;4335553;33;20152;-81
2021/07/11 02:53:54;;;;;;;46.25;28.33;;;;;;;;;;4334708;32;20229;-81
2021/07/11 02:56:56;;;;;;;;;;;;;;;;;;;;;
2021/07/11 02:59:31;;;;;;;44.17;25.23;;;;;;;;;;4350257;33;20201;-81
2021/07/11 03:01:59;;;;;;;41.50;26.65;;;;;;;;;;4340144;33;20144;-81
2021/07/11 03:04:27;;;;;;;38.83;24.23;;;;;;;;;;4343996;32;20171;-80
2021/07/11 03:07:32;;;;;;;37.63;24.05;;;;;;;;;;4342749;33;20203;-80
2021/07/11 03:09:57;;;;;;;39.90;24.83;;;;;;;;;;4340681;32;20163;-81
2021/07/11 03:12:38;;;;;;;35.20;23.95;;;;;;;;;;4336247;33;20143;-80
2021/07/11 03:15:06;;;;;;;37.58;23.83;;;;;;;;;;4331322;32;20232;-81
2021/07/11 03:17:35;;;;;;;35.67;23.17;;;;;;;;;;4340442;33;20227;-81
2021/07/11 03:20:03;;;;;;;40.50;26.98;;;;;;;;;;4344224;32;20234;-81
2021/07/11 03:22:30;;;;;;;38.38;24.65;;;;;;;;;;4344541;32;20156;-81
2021/07/11 03:25:01;;;;;;;36.50;22.83;;;;;;;;;;4344789;33;20136;-81
2021/07/11 03:27:28;;;;;;;39.33;24.45;;;;;;;;;;4345530;33;20146;-81
2021/07/11 03:30:09;;;;;;;38.03;23.83;;;;;;;;;;4344890;33;20129;-81
2021/07/11 03:32:37;;;;;;;36.60;22.52;;;;;;;;;;4345235;33;20148;-81
2021/07/11 03:35:06;;;;;;;37.30;23.98;;;;;;;;;;4344736;33;20609;-81
2021/07/11 03:37:40;;;;;;;34.03;22.75;;;;;;;;;;4344760;33;20193;-81
2021/07/11 03:40:06;;;;;;;36.17;22.70;;;;;;;;;;4344717;33;20151;-81
2021/07/11 03:42:39;;;;;;;36.60;23.95;;;;;;;;;;4345888;33;20638;-81
2021/07/11 03:45:16;;;;;;;40.60;24.77;;;;;;;;;;4344290;33;20212;-81
2021/07/11 03:47:47;;;;;;;41.97;25.58;;;;;;;;;;4344052;33;20596;-81
2021/07/11 03:50:26;;;;;;;35.60;22.75;;;;;;;;;;4345313;33;20180;-81
2021/07/11 03:55:58;;;;;;;35.25;22.10;;;;;;;;;;4360314;32;20708;-81
2021/07/11 03:58:24;;;;;;;32.90;20.95;;;;;;;;;;4355838;33;20212;-82
2021/07/11 04:00:49;;;;;;;34.97;23.12;;;;;;;;;;4344975;33;20131;-82
2021/07/11 04:03:19;;;;;;;37.67;22.62;;;;;;;;;;4344781;33;20544;-81
2021/07/11 04:05:55;;;;;;;36.72;22.37;;;;;;;;;;4343362;32;20155;-81
2021/07/11 04:08:21;;;;;;;36.35;21.62;;;;;;;;;;4344397;33;20166;-81
2021/07/11 04:10:47;;;;;;;30.90;20.75;;;;;;;;;;4343655;33;20565;-81
2021/07/11 04:13:13;;;;;;;31.75;22.00;;;;;;;;;;4344901;33;20132;-80
2021/07/11 04:15:39;;;;;;;31.42;20.90;;;;;;;;;;4343505;33;20178;-81
2021/07/11 04:18:13;;;;;;;35.08;21.65;;;;;;;;;;4343390;33;20246;-81
2021/07/11 04:20:57;;;;;;;31.15;20.60;;;;;;;;;;4345333;33;20529;-81
2021/07/11 04:23:26;;;;;;;34.25;21.27;;;;;;;;;;4343563;33;20186;-81
2021/07/11 04:25:56;;;;;;;31.25;20.92;;;;;;;;;;4343227;33;20608;-81
2021/07/11 04:28:24;;;;;;;30.92;20.77;;;;;;;;;;4343309;33;20164;-81
2021/07/11 04:30:57;;;;;;;31.37;20.48;;;;;;;;;;4344992;33;20135;-81
2021/07/11 04:33:36;;;;;;;34.25;22.55;;;;;;;;;;4343801;33;20245;-81
2021/07/11 04:36:41;;;;;;;34.45;21.70;;;;;;;;;;4344850;33;20191;-80
2021/07/11 04:39:38;;;;;;;;;;;;;;;;;;;;;
2021/07/11 04:42:07;;;;;;;32.47;21.20;;;;;;;;;;4335212;33;20474;-81
2021/07/11 04:44:35;;;;;;;33.38;21.60;;;;;;;;;;4341755;33;20163;-80
2021/07/11 04:47:03;;;;;;;32.97;21.77;;;;;;;;;;4344176;33;20167;-81
2021/07/11 04:49:31;;;;;;;33.13;21.60;;;;;;;;;;4343133;33;20219;-80
2021/07/11 04:52:03;;;;;;;32.60;21.52;;;;;;;;;;4343794;33;20221;-80
2021/07/11 04:54:28;;;;;;;29.40;19.75;;;;;;;;;;4342978;32;20258;-80
2021/07/11 05:00:05;;;;;;;33.58;22.35;;;;;;;;;;4330307;33;20653;-80
2021/07/11 05:02:33;;;;;;;32.17;21.33;;;;;;;;;;4328844;33;20546;-80
2021/07/11 05:08:16;;;;;;;31.05;21.27;;;;;;;;;;4288702;33;20191;-80
2021/07/11 05:10:47;;;;;;;32.85;21.48;;;;;;;;;;4298401;33;20192;-81
2021/07/11 05:13:34;;;;;;;36.92;23.27;;;;;;;;;;4329941;32;20228;-79
2021/07/11 05:16:20;;;;;;;34.75;23.85;;;;;;;;;;4328026;32;20160;-79
2021/07/11 05:18:57;;;;;;;37.35;24.17;;;;;;;;;;4328575;32;20183;-79
2021/07/11 05:21:30;;;;;;;36.53;22.95;;;;;;;;;;4329404;33;20128;-79
2021/07/11 05:23:59;;;;;;;35.15;23.75;;;;;;;;;;4328151;33;20155;-80
2021/07/11 05:26:24;;;;;;;34.33;22.25;;;;;;;;;;4327634;33;20202;-79
2021/07/11 05:29:10;;;;;;;38.92;25.10;;;;;;;;;;4328788;33;20136;-79
2021/07/11 05:31:35;;;;;;;33.63;22.25;;;;;;;;;;4329050;33;20225;-79
2021/07/11 05:34:10;;;;;;;33.05;21.33;;;;;;;;;;4329645;33;20533;-80
2021/07/11 05:36:35;;;;;;;29.12;20.10;;;;;;;;;;4327389;33;20475;-79
2021/07/11 05:39:06;;;;;;;35.40;23.60;;;;;;;;;;4327345;33;20209;-79
2021/07/11 05:41:31;;;;;;;34.92;23.67;;;;;;;;;;4328280;33;20183;-81
2021/07/11 05:44:19;;;;;;;;;;;;;;;;;;;;;
2021/07/11 05:47:05;;;;;;;30.98;20.33;;;;;;;;;;4329004;33;20172;-80
2021/07/11 05:49:38;;;;;;;37.60;23.02;;;;;;;;;;4343935;33;20268;-80
2021/07/11 05:52:04;;;;;;;37.75;24.40;;;;;;;;;;4343158;33;20155;-80
2021/07/11 05:54:29;;;;;;;36.70;24.17;;;;;;;;;;4343848;33;20539;-79
2021/07/11 05:56:54;;;;;;;35.42;23.23;;;;;;;;;;4342063;33;20649;-79
2021/07/11 05:59:23;;;;;;;35.50;22.62;;;;;;;;;;4343996;33;20247;-79
2021/07/11 06:01:48;;;;;;;34.53;21.95;;;;;;;;;;4342411;33;20163;-80
2021/07/11 06:04:14;;;;;;;32.30;21.80;;;;;;;;;;4343351;33;20461;-81
2021/07/11 06:06:40;;;;;;;32.80;22.05;;;;;;;;;;4342660;33;20201;-81
2021/07/11 06:09:06;;;;;;;34.45;22.37;;;;;;;;;;4343200;33;20151;-80
2021/07/11 06:11:32;;;;;;;37.28;23.02;;;;;;;;;;4342610;33;20175;-81
2021/07/11 06:14:18;;;;;;;32.78;21.23;;;;;;;;;;4342122;33;20205;-81
2021/07/11 06:16:43;;;;;;;37.13;24.73;;;;;;;;;;4343470;33;20672;-80
2021/07/11 06:19:08;;;;;;;39.13;23.15;;;;;;;;;;4343231;33;20201;-80
2021/07/11 06:21:33;;;;;;;43.40;25.27;;;;;;;;;;4342212;33;20220;-80
2021/07/11 06:23:58;;;;;;;42.90;28.30;;;;;;;;;;4342208;33;20242;-79
2021/07/11 06:26:24;;;;;;;41.95;25.33;;;;;;;;;;4342955;33;20236;-79
2021/07/11 06:28:49;;;;;;;44.83;27.95;;;;;;;;;;4341589;33;20511;-81
2021/07/11 06:31:37;;;;;;;44.45;28.67;;;;;;;;;;4336668;32;20194;-81
2021/07/11 06:34:09;;;;;;;43.92;25.58;;;;;;;;;;4329667;33;20143;-80
2021/07/11 06:36:34;;;;;;;46.42;28.05;;;;;;;;;;4327160;33;20186;-80
2021/07/11 06:39:09;;;;;;;51.53;30.65;;;;;;;;;;4328686;33;20155;-80
2021/07/11 06:41:34;;;;;;;47.58;30.27;;;;;;;;;;4328370;33;20234;-80
2021/07/11 06:44:19;;;;;;;49.65;28.95;;;;;;;;;;4326965;33;20163;-80
2021/07/11 06:47:03;;;;;;;;;;;;;;;;;;;;;
2021/07/11 06:49:29;;;;;;;55.42;32.83;;;;;;;;;;4327968;33;20190;-79
2021/07/11 06:51:55;;;;;;;53.15;31.80;;;;;;;;;;4327127;33;20217;-79
2021/07/11 06:54:20;;;;;;;53.50;31.60;;;;;;;;;;4326915;33;20199;-79
2021/07/11 06:56:45;;;;;;;52.58;30.48;;;;;;;;;;4327897;33;20133;-79
2021/07/11 06:59:11;;;;;;;53.47;32.65;;;;;;;;;;4326919;33;20155;-79
2021/07/11 07:01:39;;;;;;;56.95;32.97;;;;;;;;;;4330037;33;20152;-79
2021/07/11 07:04:04;;;;;;;51.17;29.80;;;;;;;;;;4342165;33;20498;-79
2021/07/11 07:06:33;;;;;;;56.30;33.47;;;;;;;;;;4342840;33;20154;-78
2021/07/11 07:09:01;;;;;;;52.75;31.83;;;;;;;;;;4344785;33;20281;-77
2021/07/11 07:11:36;;;;;;;47.45;30.40;;;;;;;;;;4343996;33;20225;-77
2021/07/11 07:14:01;;;;;;;58.20;33.15;;;;;;;;;;4343468;33;20255;-78
2021/07/11 07:16:44;;;;;;;52.58;30.85;;;;;;;;;;4344712;33;20480;-78
2021/07/11 07:19:09;;;;;;;51.30;31.05;;;;;;;;;;4343553;33;20204;-79
2021/07/11 07:21:35;;;;;;;55.92;33.38;;;;;;;;;;4344338;33;20159;-78
2021/07/11 07:24:07;;;;;;;53.20;32.28;;;;;;;;;;4343902;33;20260;-77
2021/07/11 07:26:32;;;;;;;61.50;35.53;;;;;;;;;;4326575;33;20580;-76
2021/07/11 07:28:58;;;;;;;55.72;33.53;;;;;;;;;;4334165;33;20251;-77
2021/07/11 07:31:23;;;;;;;60.97;35.95;;;;;;;;;;4329715;33;20176;-77
2021/07/11 07:33:49;;;;;;;62.60;35.75;;;;;;;;;;4343593;33;20151;-75
2021/07/11 07:36:27;;;;;;;;;;;;;;;;;;;;;
2021/07/11 07:38:53;;;;;;;54.92;33.70;;;;;;;;;;4342586;33;20171;-75
2021/07/11 07:41:59;;;;;;;70.12;38.25;;;;;;;;;;4340515;33;20631;-76
2021/07/11 07:47:39;;;;;;;59.60;36.92;;;;;;;;;;4345062;33;20164;-75
2021/07/11 07:49:56;;;;;;;73.95;41.45;;;;;;;;;;4328115;33;20175;-75
2021/07/11 07:52:32;;;;;;;74.85;42.75;;;;;;;;;;4329151;32;20191;-76
2021/07/11 07:55:29;;;;;;;75.53;41.22;;;;;;;;;;4328110;32;20175;-76
2021/07/11 07:58:15;;;;;;;;;;;;;;;;;;;;;
2021/07/11 08:04:09;;;;;;;77.15;41.25;;;;;;;;;;4344011;33;20250;-76
2021/07/11 08:06:38;;;;;;;74.20;41.72;;;;;;;;;;4334487;32;20171;-76
2021/07/11 08:09:17;;;;;;;75.25;41.40;;;;;;;;;;4343543;33;20164;-77
2021/07/11 08:12:07;;;;;;;84.28;45.72;;;;;;;;;;4342240;33;20220;-76
2021/07/11 08:14:43;;;;;;;90.97;46.03;;;;;;;;;;4343499;33;20160;-76
2021/07/11 08:17:08;;;;;;;90.72;46.45;;;;;;;;;;4342846;33;20146;-77
2021/07/11 08:20:02;;;;;;;;;;;;;;;;;;;;;
2021/07/11 08:22:46;;;;;;;80.95;45.25;;;;;;;;;;4343327;33;20198;-76
2021/07/11 08:25:12;;;;;;;80.47;46.15;;;;;;;;;;4343973;33;20170;-76
2021/07/11 08:31:21;;;;;;;;;;;;;;;;;;;;;
2021/07/11 08:33:49;;;;;;;72.30;43.00;;;;;;;;;;4343796;33;20505;-76
2021/07/11 08:36:34;;;;;;;;;;;;;;;;;;;;;
2021/07/11 08:57:17;;;;;;;57.15;35.63;;;;;;;;;;4342373;33;20241;-75
2021/07/11 08:59:42;;;;;;;51.65;33.55;;;;;;;;;;4343808;33;20163;-75
2021/07/11 09:02:26;;;;;;;52.03;33.13;;;;;;;;;;4341050;33;20176;-76
2021/07/11 09:05:05;;;;;;;;;;;;;;;;;;;;;
2021/07/11 09:07:31;;;;;;;51.15;32.17;;;;;;;;;;4341338;32;20164;-76
2021/07/11 09:10:02;;;;;;;45.70;29.87;;;;;;;;;;4343630;33;20178;-76
2021/07/11 09:12:36;;;;;;;43.20;27.70;;;;;;;;;;4343131;33;20249;-76
2021/07/11 09:15:13;;;;;;;45.03;30.67;;;;;;;;;;4341499;33;20182;-75
2021/07/11 09:17:38;;;;;;;42.67;29.00;;;;;;;;;;4341732;33;20198;-76
2021/07/11 09:20:14;;;;;;;43.78;29.20;;;;;;;;;;4329464;33;20171;-76
2021/07/11 09:22:39;;;;;;;47.55;30.90;;;;;;;;;;4341112;33;20193;-76
2021/07/11 09:25:19;;;;;;;41.00;28.62;;;;;;;;;;4329402;33;20183;-76
2021/07/11 09:27:44;;;;;;;38.13;26.08;;;;;;;;;;4338417;33;20163;-76
2021/07/11 09:30:20;;;;;;;;;;;;;;;;;;;;;
2021/07/11 09:32:52;;;;;;;37.95;26.10;;;;;;;;;;4334066;32;20147;-77
2021/07/11 09:35:19;;;;;;;36.03;24.42;;;;;;;;;;4326226;33;20179;-78
2021/07/11 09:37:54;;;;;;;32.33;24.10;;;;;;;;;;4340827;33;20155;-77
2021/07/11 09:40:24;;;;;;;34.60;24.17;;;;;;;;;;4341453;32;20181;-78
2021/07/11 09:42:54;;;;;;;35.55;24.83;;;;;;;;;;4341066;33;20182;-77
2021/07/11 09:45:22;;;;;;;29.70;22.02;;;;;;;;;;4342185;33;20206;-77
2021/07/11 09:47:52;;;;;;;31.87;22.48;;;;;;;;;;4343249;33;20182;-78
2021/07/11 09:50:20;;;;;;;29.63;22.67;;;;;;;;;;4342141;33;20156;-78
2021/07/11 09:52:46;;;;;;;26.62;19.83;;;;;;;;;;4343234;33;20131;-77
2021/07/11 09:55:12;;;;;;;26.52;18.95;;;;;;;;;;4342147;33;20161;-77
2021/07/11 09:57:53;;;;;;;29.60;22.02;;;;;;;;;;4342995;33;20144;-77
2021/07/11 10:00:32;;;;;;;29.90;21.65;;;;;;;;;;4342067;33;20174;-77
2021/07/11 10:02:59;;;;;;;30.08;20.50;;;;;;;;;;4342611;33;20142;-78
2021/07/11 10:05:37;;;;;;;25.45;19.25;;;;;;;;;;4341683;33;20151;-78
2021/07/11 10:08:03;;;;;;;26.73;19.10;;;;;;;;;;4341778;33;20198;-78
2021/07/11 10:10:32;;;;;;;26.75;19.90;;;;;;;;;;4341050;33;20511;-77
2021/07/11 10:13:00;;;;;;;26.80;19.95;;;;;;;;;;4334094;32;20222;-78
2021/07/11 10:18:18;;;;;;;30.02;20.85;;;;;;;;;;4337301;33;20205;-78
2021/07/11 10:20:56;;;;;;;26.48;19.02;;;;;;;;;;4341453;33;20511;-77
2021/07/11 10:23:33;;;;;;;27.90;19.75;;;;;;;;;;4341171;33;20653;-78
2021/07/11 10:26:04;;;;;;;31.08;20.67;;;;;;;;;;4341543;33;20552;-78
2021/07/11 10:28:30;;;;;;;26.35;19.45;;;;;;;;;;4341733;33;20155;-77
2021/07/11 10:30:56;;;;;;;27.13;21.17;;;;;;;;;;4341560;33;20181;-78
2021/07/11 10:33:24;;;;;;;27.95;20.15;;;;;;;;;;4342136;32;20170;-79
2021/07/11 10:36:26;;;;;;;27.90;19.77;;;;;;;;;;4341371;32;20183;-77
2021/07/11 10:38:53;;;;;;;27.15;18.92;;;;;;;;;;4350208;33;20214;-78
2021/07/11 10:41:20;;;;;;;24.87;18.02;;;;;;;;;;4341800;32;20257;-77
2021/07/11 10:44:00;;;;;;;21.67;15.02;;;;;;;;;;4344855;32;20171;-78
2021/07/11 10:46:37;;;;;;;21.62;14.43;;;;;;;;;;4344129;33;20240;-78
2021/07/11 10:49:23;;;;;;;22.80;17.77;;;;;;;;;;4344175;33;20171;-77
2021/07/11 10:51:51;;;;;;;22.17;16.42;;;;;;;;;;4344463;33;20155;-77
2021/07/11 10:54:27;;;;;;;20.92;16.35;;;;;;;;;;4344082;33;20259;-78
2021/07/11 10:57:31;;;;;;;25.58;18.45;;;;;;;;;;4344761;33;20202;-79
2021/07/11 11:00:11;;;;;;;24.25;17.70;;;;;;;;;;4287986;33;20198;-78
2021/07/11 11:02:36;;;;;;;21.37;16.85;;;;;;;;;;4293232;32;20641;-79
2021/07/11 11:05:02;;;;;;;20.05;17.30;;;;;;;;;;4313814;33;20194;-77
2021/07/11 11:07:37;;;;;;;21.92;17.23;;;;;;;;;;4330844;32;20176;-77
2021/07/11 11:10:03;;;;;;;23.33;17.90;;;;;;;;;;4329731;33;20179;-77
2021/07/11 11:12:29;;;;;;;20.90;16.58;;;;;;;;;;4329301;33;20226;-78
2021/07/11 11:14:55;;;;;;;21.75;15.88;;;;;;;;;;4331205;33;20151;-79
2021/07/11 11:17:26;;;;;;;24.40;19.08;;;;;;;;;;4336151;33;20178;-79
2021/07/11 11:19:55;;;;;;;26.58;19.20;;;;;;;;;;4343577;33;20210;-77
2021/07/11 11:22:21;;;;;;;24.98;19.65;;;;;;;;;;4343926;33;20243;-78
2021/07/11 11:24:46;;;;;;;26.27;19.98;;;;;;;;;;4344247;33;20615;-78
2021/07/11 11:27:11;;;;;;;27.13;20.92;;;;;;;;;;4343440;33;20156;-77
2021/07/11 11:29:36;;;;;;;24.63;19.45;;;;;;;;;;4344631;33;20166;-77
2021/07/11 11:32:08;;;;;;;27.67;20.65;;;;;;;;;;4345301;33;20124;-77
2021/07/11 11:34:34;;;;;;;31.98;24.70;;;;;;;;;;4344014;33;20187;-77
2021/07/11 11:36:59;;;;;;;27.98;20.30;;;;;;;;;;4343650;33;20186;-78
2021/07/11 11:39:27;;;;;;;26.55;20.10;;;;;;;;;;4344843;33;20203;-78
2021/07/11 11:41:52;;;;;;;27.13;19.48;;;;;;;;;;4341025;33;20206;-78
2021/07/11 11:44:25;;;;;;;28.25;20.80;;;;;;;;;;4333686;33;20167;-78
2021/07/11 11:46:59;;;;;;;32.03;22.17;;;;;;;;;;4342251;32;20215;-77
2021/07/11 11:49:26;;;;;;;28.87;22.60;;;;;;;;;;4343135;32;20167;-79
2021/07/11 11:51:55;;;;;;;30.65;22.37;;;;;;;;;;4344135;32;20289;-74
2021/07/11 11:54:34;;;;;;;34.15;25.17;;;;;;;;;;4342822;32;20276;-77
2021/07/11 11:57:08;;;;;;;34.55;25.20;;;;;;;;;;4342913;32;20630;-78
2021/07/11 11:59:46;;;;;;;39.30;28.10;;;;;;;;;;4344091;32;20234;-77
2021/07/11 12:02:14;;;;;;;39.33;28.05;;;;;;;;;;4343851;32;20237;-78
2021/07/11 12:04:39;;;;;;;37.40;26.52;;;;;;;;;;4343488;33;20163;-78
2021/07/11 12:07:25;;;;;;;40.15;26.92;;;;;;;;;;4344276;33;20525;-77
2021/07/11 12:09:53;;;;;;;31.95;24.85;;;;;;;;;;4342708;33;20183;-77
2021/07/11 12:12:18;;;;;;;38.78;28.52;;;;;;;;;;4344565;33;20227;-78
2021/07/11 12:14:47;;;;;;;36.45;25.92;;;;;;;;;;4343774;33;20568;-78
2021/07/11 12:20:19;;;;;;;31.90;23.15;;;;;;;;;;4330205;33;20145;-78
2021/07/11 12:22:44;;;;;;;37.70;26.20;;;;;;;;;;4342804;33;20190;-78
2021/07/11 12:25:36;;;;;;;35.92;25.50;;;;;;;;;;4344522;33;20139;-78
2021/07/11 12:28:03;;;;;;;35.22;23.58;;;;;;;;;;4334800;33;20303;-79
2021/07/11 12:33:37;;;;;;;32.65;24.02;;;;;;;;;;4329536;33;20139;-80
2021/07/11 12:36:10;;;;;;;15.32;11.73;;;;;;;;;;4342615;33;20177;-78
2021/07/11 12:38:38;;;;;;;15.57;11.15;;;;;;;;;;4343014;32;20207;-78
2021/07/11 12:41:04;;;;;;;12.15;9.07;;;;;;;;;;4342276;32;20155;-79
2021/07/11 12:43:34;;;;;;;10.88;7.30;;;;;;;;;;4342651;33;20151;-79
2021/07/11 12:46:05;;;;;;;19.40;12.65;;;;;;;;;;4343169;33;20151;-79
2021/07/11 12:48:48;;;;;;;;;;;;;;;;;;;;;
2021/07/11 12:51:15;;;;;;;25.35;19.10;;;;;;;;;;4340369;33;20524;-78
2021/07/11 12:53:59;;;;;;;22.70;18.25;;;;;;;;;;4342170;33;20172;-77
2021/07/11 12:56:29;;;;;;;20.50;16.35;;;;;;;;;;4342242;33;20231;-77
2021/07/11 12:59:16;;;;;;;20.85;17.12;;;;;;;;;;4343458;33;20243;-78
2021/07/11 13:01:41;;;;;;;23.05;17.08;;;;;;;;;;4339119;33;20837;-77
2021/07/11 13:04:45;;;;;;;17.55;14.25;;;;;;;;;;4342653;33;20163;-77
2021/07/11 13:10:43;;;;;;;16.27;11.30;;;;;;;;;;4321034;33;20488;-79
2021/07/11 13:13:21;;;;;;;12.43;9.82;;;;;;;;;;4334926;32;20206;-78
2021/07/11 13:16:05;;;;;;;13.48;10.00;;;;;;;;;;4341427;33;20543;-80
2021/07/11 13:18:33;;;;;;;6.85;6.00;;;;;;;;;;4343401;33;20292;-79
2021/07/11 13:21:07;;;;;;;9.00;7.20;;;;;;;;;;4342336;33;20164;-79
2021/07/11 13:23:42;;;;;;;7.15;5.32;;;;;;;;;;4343971;33;20203;-79
2021/07/11 13:26:07;;;;;;;6.22;4.75;;;;;;;;;;4344187;33;20149;-79
2021/07/11 13:28:32;;;;;;;4.22;3.78;;;;;;;;;;4343580;33;20155;-76
2021/07/11 13:30:57;;;;;;;4.62;4.15;;;;;;;;;;4342800;33;20480;-78
2021/07/11 13:33:23;;;;;;;4.82;3.65;;;;;;;;;;4343048;33;20186;-77
2021/07/11 13:35:58;;;;;;;5.47;3.60;;;;;;;;;;4342977;33;20476;-80
2021/07/11 13:38:23;;;;;;;5.00;3.40;;;;;;;;;;4344860;33;20199;-80
2021/07/11 13:40:48;;;;;;;4.87;3.50;;;;;;;;;;4342524;33;20152;-81
2021/07/11 13:43:17;;;;;;;4.15;3.35;;;;;;;;;;4341423;33;20155;-80
2021/07/11 13:45:45;;;;;;;4.00;3.22;;;;;;;;;;4342266;33;20187;-79
2021/07/11 13:48:12;;;;;;;5.12;3.78;;;;;;;;;;4342023;33;20668;-80
2021/07/11 13:50:40;;;;;;;3.62;3.30;;;;;;;;;;4342170;33;20152;-79
2021/07/11 13:53:06;;;;;;;5.82;3.80;;;;;;;;;;4342039;33;20159;-79
2021/07/11 13:55:31;;;;;;;5.97;3.62;;;;;;;;;;4343608;33;20504;-79
2021/07/11 13:57:57;;;;;;;5.55;4.28;;;;;;;;;;4342147;33;20175;-78
2021/07/11 14:00:22;;;;;;;6.32;4.07;;;;;;;;;;4342861;33;20227;-79
2021/07/11 14:02:51;;;;;;;6.72;4.30;;;;;;;;;;4341957;33;20159;-79
2021/07/11 14:05:17;;;;;;;5.82;3.80;;;;;;;;;;4341544;33;20226;-79
2021/07/11 14:07:43;;;;;;;6.12;4.32;;;;;;;;;;4342002;33;20151;-80
2021/07/11 14:10:10;;;;;;;6.00;4.60;;;;;;;;;;4341738;33;20450;-79
2021/07/11 14:12:36;;;;;;;4.57;3.72;;;;;;;;;;4330423;33;20190;-79
2021/07/11 14:15:05;;;;;;;5.60;4.10;;;;;;;;;;4341765;33;20190;-80
2021/07/11 14:17:30;;;;;;;4.72;4.30;;;;;;;;;;4343475;33;20499;-79
2021/07/11 14:19:56;;;;;;;4.65;4.03;;;;;;;;;;4332697;33;20159;-79
2021/07/11 14:22:21;;;;;;;6.35;4.10;;;;;;;;;;4344441;33;20191;-80
2021/07/11 14:25:01;;;;;;;5.70;3.58;;;;;;;;;;4344881;33;20183;-81
2021/07/11 14:27:27;;;;;;;6.15;3.58;;;;;;;;;;4344833;33;20193;-79
2021/07/11 14:29:52;;;;;;;5.40;3.80;;;;;;;;;;4344615;33;20155;-79
2021/07/11 14:32:21;;;;;;;5.75;3.90;;;;;;;;;;4344569;33;20216;-80
2021/07/11 14:34:48;;;;;;;6.68;3.80;;;;;;;;;;4345476;33;20166;-80
2021/07/11 14:37:24;;;;;;;4.97;3.75;;;;;;;;;;4344330;33;20175;-80
2021/07/11 14:39:49;;;;;;;5.05;4.20;;;;;;;;;;4344619;33;20175;-80
2021/07/11 14:42:14;;;;;;;5.15;4.00;;;;;;;;;;4344727;33;20178;-79
2021/07/11 14:44:40;;;;;;;4.93;4.10;;;;;;;;;;4344058;33;20211;-80
2021/07/11 14:47:05;;;;;;;4.85;3.70;;;;;;;;;;4344480;33;20185;-80
2021/07/11 14:49:31;;;;;;;5.07;3.85;;;;;;;;;;4344112;33;20242;-79
2021/07/11 14:51:56;;;;;;;5.97;4.28;;;;;;;;;;4343960;33;20233;-80
2021/07/11 14:54:21;;;;;;;3.80;3.40;;;;;;;;;;4344477;33;20285;-80
2021/07/11 14:56:47;;;;;;;4.10;3.60;;;;;;;;;;4343818;33;20213;-79
2021/07/11 14:59:12;;;;;;;4.90;3.70;;;;;;;;;;4343794;32;20301;-80
2021/07/11 15:01:37;;;;;;;4.30;3.25;;;;;;;;;;4344556;33;20539;-80
2021/07/11 15:04:03;;;;;;;3.58;3.28;;;;;;;;;;4343992;33;20542;-78
2021/07/11 15:06:35;;;;;;;3.85;2.95;;;;;;;;;;4344196;33;20219;-81
2021/07/11 15:09:04;;;;;;;4.12;3.40;;;;;;;;;;4343998;33;20186;-81
2021/07/11 15:11:29;;;;;;;4.95;3.30;;;;;;;;;;4344332;33;20179;-80
2021/07/11 15:13:54;;;;;;;4.57;3.08;;;;;;;;;;4343638;33;20238;-79
2021/07/11 15:16:21;;;;;;;3.85;3.45;;;;;;;;;;4331291;33;20151;-80
2021/07/11 15:18:46;;;;;;;4.30;3.40;;;;;;;;;;4344131;33;20168;-80
2021/07/11 15:21:12;;;;;;;4.12;3.40;;;;;;;;;;4344007;33;20179;-80
2021/07/11 15:23:37;;;;;;;4.22;3.28;;;;;;;;;;4344372;33;20177;-78
2021/07/11 15:26:02;;;;;;;5.45;4.80;;;;;;;;;;4343782;33;20604;-80
2021/07/11 15:28:28;;;;;;;5.53;3.40;;;;;;;;;;4343060;33;20190;-80
2021/07/11 15:30:53;;;;;;;3.75;3.37;;;;;;;;;;4343502;32;20143;-79
2021/07/11 15:33:19;;;;;;;3.40;3.10;;;;;;;;;;4343580;33;20232;-80
2021/07/11 15:36:04;;;;;;;4.32;3.28;;;;;;;;;;4343689;33;20185;-80
2021/07/11 15:38:30;;;;;;;4.85;3.45;;;;;;;;;;4328619;33;20148;-79
2021/07/11 15:40:56;;;;;;;4.10;3.58;;;;;;;;;;4341963;32;20600;-80
2021/07/11 15:43:24;;;;;;;7.90;6.12;;;;;;;;;;4341882;33;20192;-79
2021/07/11 15:45:49;;;;;;;11.35;8.13;;;;;;;;;;4329495;33;20224;-79
2021/07/11 15:48:17;;;;;;;11.93;9.80;;;;;;;;;;4328610;33;20581;-80
2021/07/11 15:50:47;;;;;;;10.38;8.13;;;;;;;;;;4328528;33;20183;-78
2021/07/11 15:53:25;;;;;;;11.05;9.30;;;;;;;;;;4341436;33;20189;-77
2021/07/11 15:55:53;;;;;;;18.85;14.45;;;;;;;;;;4340858;33;20312;-78
2021/07/11 15:58:19;;;;;;;18.23;14.73;;;;;;;;;;4342336;32;20191;-79
2021/07/11 16:00:44;;;;;;;19.70;13.60;;;;;;;;;;4343574;33;20182;-77
2021/07/11 16:03:10;;;;;;;16.00;12.65;;;;;;;;;;4343535;33;20159;-77
2021/07/11 16:05:35;;;;;;;15.18;12.32;;;;;;;;;;4344956;33;20566;-77
2021/07/11 16:08:00;;;;;;;14.38;11.63;;;;;;;;;;4343460;33;20152;-77
2021/07/11 16:10:27;;;;;;;14.75;11.45;;;;;;;;;;4343067;33;20687;-77
2021/07/11 16:12:55;;;;;;;15.68;11.57;;;;;;;;;;4343308;33;20179;-76